Time;durP1;ratioP1;P1;durP2;ratioP2;P2;SDS_P1;SDS_P2;PMS_P1;PMS_P2;Temp;Humidity;BMP_temperature;BMP_pressure;BME280_temperature;BME280_humidity;BME280_pressure;Samples;Min_cycle;Max_cycle;Signal;HPM_P1;HPM_P2
2021/08/20 00:01:29;;;;;;;10.52;3.45;;;;;;;18.44;63.20;100241.91;5035890;28;20073;-65
2021/08/20 00:03:58;;;;;;;13.02;3.78;;;;;;;18.39;63.29;100230.78;5035548;28;20505;-65
2021/08/20 00:06:25;;;;;;;9.35;3.88;;;;;;;18.46;63.48;100236.72;5035389;28;20085;-65
2021/08/20 00:08:51;;;;;;;10.98;2.80;;;;;;;18.57;63.10;100231.53;5035404;28;20077;-65
2021/08/20 00:11:18;;;;;;;19.77;4.13;;;;;;;18.51;63.00;100247.84;5034140;28;20494;-65
2021/08/20 00:13:45;;;;;;;16.95;4.22;;;;;;;18.36;62.99;100228.63;5034911;28;20057;-65
2021/08/20 00:16:12;;;;;;;10.35;5.07;;;;;;;18.34;63.47;100245.13;5038325;28;20124;-65
2021/08/20 00:18:39;;;;;;;14.10;3.30;;;;;;;18.17;63.74;100235.56;5051091;28;20049;-65
2021/08/20 00:21:08;;;;;;;15.50;4.68;;;;;;;18.07;64.80;100244.41;5035360;28;20378;-65
2021/08/20 00:23:35;;;;;;;18.00;4.88;;;;;;;17.96;64.67;100227.00;5035414;28;20162;-65
2021/08/20 00:26:03;;;;;;;13.23;4.13;;;;;;;17.92;64.36;100228.84;5034872;28;20100;-65
2021/08/20 00:28:30;;;;;;;14.50;3.88;;;;;;;17.98;64.66;100238.81;5034951;28;20506;-65
2021/08/20 00:30:59;;;;;;;15.38;4.85;;;;;;;18.13;64.44;100247.88;5034771;28;20132;-65
2021/08/20 00:33:26;;;;;;;15.68;4.60;;;;;;;18.12;64.19;100232.94;5034847;28;20055;-65
2021/08/20 00:35:52;;;;;;;14.15;3.97;;;;;;;18.15;64.43;100235.09;5047291;28;20144;-65
2021/08/20 00:38:19;;;;;;;11.43;3.25;;;;;;;18.19;64.77;100246.53;5034902;28;20473;-64
2021/08/20 00:40:46;;;;;;;10.93;3.88;;;;;;;18.22;64.57;100241.03;5034572;28;20092;-64
2021/08/20 00:43:13;;;;;;;13.55;4.00;;;;;;;18.21;64.51;100235.69;5034529;28;20123;-64
2021/08/20 00:45:40;;;;;;;11.93;3.38;;;;;;;18.22;64.62;100238.22;5034905;28;20469;-65
2021/08/20 00:48:07;;;;;;;12.48;4.53;;;;;;;18.26;64.29;100246.00;5034850;28;20452;-65
2021/08/20 00:50:35;;;;;;;11.52;3.88;;;;;;;18.10;64.80;100235.25;5034617;28;20089;-65
2021/08/20 00:53:02;;;;;;;9.48;3.35;;;;;;;17.91;65.65;100223.53;5053351;28;20128;-65
2021/08/20 00:55:29;;;;;;;14.52;4.60;;;;;;;17.87;65.95;100225.38;5034541;28;20140;-65
2021/08/20 00:57:58;;;;;;;18.17;4.07;;;;;;;17.86;66.02;100227.38;5045353;28;20552;-63
2021/08/20 01:00:25;;;;;;;9.57;3.63;;;;;;;17.67;66.05;100215.59;5053305;28;20037;-64
2021/08/20 01:02:53;;;;;;;11.10;3.55;;;;;;;17.77;66.46;100221.75;5054400;28;20377;-64
2021/08/20 01:05:21;;;;;;;10.70;3.10;;;;;;;17.58;67.45;100226.94;5054286;28;20489;-64
2021/08/20 01:07:48;;;;;;;23.88;4.32;;;;;;;17.43;68.13;100230.25;5050848;28;20049;-64
2021/08/20 01:10:15;;;;;;;11.15;4.32;;;;;;;17.42;67.73;100211.69;5053904;28;20045;-64
2021/08/20 01:12:42;;;;;;;9.10;4.40;;;;;;;17.58;67.40;100212.81;5047930;28;20049;-64
2021/08/20 01:15:11;;;;;;;11.63;3.80;;;;;;;17.68;66.68;100201.16;5034200;28;20132;-64
2021/08/20 01:17:38;;;;;;;8.57;4.10;;;;;;;17.67;66.80;100205.13;5050457;28;20115;-64
2021/08/20 01:20:09;;;;;;;8.15;3.20;;;;;;;17.49;67.09;100189.41;5051409;28;20357;-64
2021/08/20 01:22:38;;;;;;;16.88;4.70;;;;;;;17.68;67.21;100200.34;5033816;28;20068;-64
2021/08/20 01:25:06;;;;;;;8.95;4.32;;;;;;;17.74;66.89;100205.47;5034536;28;20144;-64
2021/08/20 01:27:35;;;;;;;10.35;4.15;;;;;;;17.76;66.74;100208.78;5033717;28;20136;-65
2021/08/20 01:30:04;;;;;;;8.45;3.58;;;;;;;17.57;66.72;100185.72;5033893;28;20049;-64
2021/08/20 01:32:31;;;;;;;13.93;5.00;;;;;;;17.63;66.87;100212.63;5034191;28;20284;-65
2021/08/20 01:34:58;;;;;;;10.23;3.88;;;;;;;17.62;66.85;100219.44;5033957;28;20365;-64
2021/08/20 01:37:25;;;;;;;14.43;4.40;;;;;;;17.53;67.08;100201.69;5033569;28;20128;-65
2021/08/20 01:39:52;;;;;;;9.52;3.63;;;;;;;17.54;67.38;100217.47;5033472;28;20119;-64
2021/08/20 01:42:19;;;;;;;8.83;3.73;;;;;;;17.56;67.11;100215.13;5034031;28;20133;-65
2021/08/20 01:44:46;;;;;;;12.43;3.55;;;;;;;17.57;67.35;100211.13;5033531;28;20528;-65
2021/08/20 01:47:13;;;;;;;10.68;4.28;;;;;;;17.58;66.99;100210.00;5033448;28;20132;-64
2021/08/20 01:49:41;;;;;;;14.83;4.77;;;;;;;17.61;67.14;100209.31;5033612;28;20143;-65
2021/08/20 01:52:08;;;;;;;13.43;4.60;;;;;;;17.60;67.16;100204.00;5044224;28;20564;-65
2021/08/20 01:54:35;;;;;;;14.73;4.40;;;;;;;17.65;67.17;100207.47;5053215;28;20256;-65
2021/08/20 01:57:02;;;;;;;12.32;4.05;;;;;;;17.73;66.78;100202.97;5053460;28;20072;-65
2021/08/20 01:59:29;;;;;;;11.27;3.80;;;;;;;17.89;66.37;100206.94;5039379;28;20490;-65
2021/08/20 02:01:56;;;;;;;15.75;4.43;;;;;;;18.06;66.52;100210.84;5033130;28;20133;-65
2021/08/20 02:04:25;;;;;;;10.35;3.33;;;;;;;18.17;66.26;100212.94;5033238;28;20115;-64
2021/08/20 02:06:52;;;;;;;13.50;4.20;;;;;;;18.19;66.14;100199.31;5033296;28;20128;-65
2021/08/20 02:09:19;;;;;;;15.77;4.28;;;;;;;18.22;66.16;100207.13;5033056;28;20084;-65
2021/08/20 02:11:46;;;;;;;17.23;4.63;;;;;;;18.30;66.12;100207.41;5033325;28;20103;-65
2021/08/20 02:14:13;;;;;;;15.63;4.75;;;;;;;18.39;66.18;100202.50;5032991;28;20124;-65
2021/08/20 02:16:40;;;;;;;14.38;4.50;;;;;;;18.42;66.05;100194.19;5041474;28;20446;-65
2021/08/20 02:19:06;;;;;;;11.93;4.90;;;;;;;18.34;65.58;100182.94;5052281;28;20073;-65
2021/08/20 02:21:33;;;;;;;13.82;4.53;;;;;;;18.33;65.39;100172.81;5044902;28;20217;-65
2021/08/20 02:24:00;;;;;;;15.07;4.68;;;;;;;18.29;65.67;100185.94;5032988;28;20132;-65
2021/08/20 02:26:28;;;;;;;15.32;4.35;;;;;;;18.27;65.59;100171.34;5032838;28;20056;-65
2021/08/20 02:28:55;;;;;;;10.13;3.80;;;;;;;18.23;65.69;100166.38;5032751;28;20447;-65
2021/08/20 02:31:22;;;;;;;18.35;4.13;;;;;;;18.40;65.56;100188.06;5047989;28;20137;-64
2021/08/20 02:33:49;;;;;;;14.52;4.55;;;;;;;18.41;65.65;100189.69;5033397;28;20460;-65
2021/08/20 02:36:16;;;;;;;16.70;4.43;;;;;;;18.34;65.71;100186.59;5032622;28;20085;-65
2021/08/20 02:38:43;;;;;;;13.38;4.45;;;;;;;18.28;65.82;100193.59;5032562;28;20128;-65
2021/08/20 02:41:10;;;;;;;17.75;4.93;;;;;;;18.06;66.00;100177.78;5032607;28;20124;-65
2021/08/20 02:43:37;;;;;;;17.20;3.90;;;;;;;17.95;66.29;100182.16;5031239;28;20143;-64
2021/08/20 02:46:04;;;;;;;11.25;3.88;;;;;;;17.85;66.63;100182.53;5049866;28;20049;-64
2021/08/20 02:48:32;;;;;;;9.77;5.50;;;;;;;17.81;66.63;100187.19;5051299;28;20507;-64
2021/08/20 02:50:58;;;;;;;15.02;4.35;;;;;;;17.65;66.43;100173.59;5032969;28;20468;-65
2021/08/20 02:53:25;;;;;;;18.80;3.78;;;;;;;17.89;66.92;100186.31;5031005;28;20553;-65
2021/08/20 02:55:52;;;;;;;12.45;4.28;;;;;;;17.97;66.23;100179.81;5032420;28;20041;-64
2021/08/20 02:58:19;;;;;;;14.75;4.95;;;;;;;18.03;66.20;100188.94;5032210;28;20140;-65
2021/08/20 03:00:47;;;;;;;14.35;3.88;;;;;;;17.99;66.65;100183.94;5032084;28;20049;-65
2021/08/20 03:03:15;;;;;;;15.88;4.32;;;;;;;17.88;66.24;100162.91;5032313;28;20310;-64
2021/08/20 03:05:42;;;;;;;14.75;4.90;;;;;;;18.00;66.47;100179.13;5032553;28;20045;-65
2021/08/20 03:08:09;;;;;;;16.17;4.47;;;;;;;18.02;66.53;100168.31;5032608;28;20583;-65
2021/08/20 03:10:36;;;;;;;10.60;4.20;;;;;;;18.09;66.55;100165.78;5032008;28;20390;-65
2021/08/20 03:13:04;;;;;;;11.73;4.68;;;;;;;18.14;66.23;100154.28;5031784;28;20125;-65
2021/08/20 03:15:31;;;;;;;12.60;4.93;;;;;;;18.22;66.13;100173.19;5032376;28;20060;-66
2021/08/20 03:17:58;;;;;;;15.70;4.30;;;;;;;17.91;66.42;100131.13;5041803;28;20080;-65
2021/08/20 03:20:25;;;;;;;13.95;4.20;;;;;;;18.22;65.98;100175.19;5052441;28;20123;-65
2021/08/20 03:22:52;;;;;;;12.15;3.95;;;;;;;18.20;66.18;100166.22;5052041;28;20041;-65
2021/08/20 03:25:20;;;;;;;20.33;5.70;;;;;;;18.12;66.10;100176.41;5051095;28;20052;-66
2021/08/20 03:27:46;;;;;;;14.73;4.57;;;;;;;17.99;66.32;100174.66;5046131;28;20140;-65
2021/08/20 03:30:13;;;;;;;9.68;3.40;;;;;;;17.80;66.55;100171.41;5033832;28;20077;-65
2021/08/20 03:32:42;;;;;;;13.93;4.03;;;;;;;17.64;67.48;100183.25;5036136;28;20041;-66
2021/08/20 03:35:09;;;;;;;11.55;3.97;;;;;;;17.46;67.37;100168.31;5036088;28;20102;-64
2021/08/20 03:37:42;;;;;;;14.02;3.17;;;;;;;17.41;67.96;100168.50;5036331;28;20447;-65
2021/08/20 03:40:09;;;;;;;14.88;4.57;;;;;;;17.44;67.54;100167.03;5042398;28;20072;-65
2021/08/20 03:42:36;;;;;;;11.95;4.15;;;;;;;17.41;67.71;100185.44;5055160;28;20045;-65
2021/08/20 03:45:03;;;;;;;9.65;5.05;;;;;;;17.45;67.65;100177.13;5046281;28;20073;-65
2021/08/20 03:47:31;;;;;;;9.80;4.22;;;;;;;17.43;67.42;100154.06;5035714;28;20081;-63
2021/08/20 03:49:57;;;;;;;19.13;3.70;;;;;;;17.50;67.69;100158.03;5035664;28;20041;-65
2021/08/20 03:52:24;;;;;;;7.45;3.25;;;;;;;17.39;68.07;100175.66;5036109;28;20129;-65
2021/08/20 03:54:51;;;;;;;13.57;5.22;;;;;;;17.17;68.34;100163.41;5054291;28;20045;-65
2021/08/20 03:57:18;;;;;;;16.13;4.45;;;;;;;17.32;68.24;100186.63;5055356;28;20091;-64
2021/08/20 03:59:44;;;;;;;8.97;3.33;;;;;;;16.40;68.68;100054.31;5045925;28;20120;-64
2021/08/20 04:02:11;;;;;;;10.27;3.70;;;;;;;17.11;69.13;100192.13;5044040;28;20053;-64
2021/08/20 04:04:38;;;;;;;13.35;3.80;;;;;;;16.96;69.32;100173.75;5035534;28;20133;-64
2021/08/20 04:07:05;;;;;;;13.07;4.40;;;;;;;17.02;68.83;100184.50;5035353;28;20046;-64
2021/08/20 04:09:32;;;;;;;12.50;4.75;;;;;;;17.20;68.60;100190.97;5035471;28;20124;-64
2021/08/20 04:11:59;;;;;;;14.30;3.97;;;;;;;17.28;68.46;100183.66;5035742;28;20080;-64
2021/08/20 04:14:26;;;;;;;10.63;3.85;;;;;;;17.34;68.50;100173.03;5034946;28;20058;-63
2021/08/20 04:16:53;;;;;;;12.43;3.67;;;;;;;17.55;68.53;100184.44;5035857;28;20098;-64
2021/08/20 04:19:20;;;;;;;11.38;3.15;;;;;;;17.55;68.03;100161.84;5035184;28;20052;-64
2021/08/20 04:21:46;;;;;;;11.00;4.63;;;;;;;17.71;67.96;100188.38;5034989;28;20085;-64
2021/08/20 04:24:15;;;;;;;13.70;5.03;;;;;;;17.66;67.84;100192.19;5035043;28;20084;-64
2021/08/20 04:26:41;;;;;;;12.68;3.55;;;;;;;17.53;68.04;100181.91;5034884;28;20049;-64
2021/08/20 04:29:08;;;;;;;9.63;3.67;;;;;;;17.41;68.30;100185.44;5034989;28;20128;-64
2021/08/20 04:31:35;;;;;;;11.50;3.80;;;;;;;17.43;67.98;100188.75;5035140;28;20077;-64
2021/08/20 04:34:02;;;;;;;12.48;4.38;;;;;;;17.38;68.32;100185.28;5055113;28;20041;-64
2021/08/20 04:36:29;;;;;;;14.70;4.03;;;;;;;17.36;68.62;100196.91;5047562;28;20048;-64
2021/08/20 04:38:56;;;;;;;19.40;4.00;;;;;;;17.32;68.92;100195.91;5034981;28;20124;-64
2021/08/20 04:41:23;;;;;;;12.88;4.00;;;;;;;17.30;68.56;100198.25;5034191;28;20124;-64
2021/08/20 04:43:50;;;;;;;11.15;3.85;;;;;;;17.25;68.67;100184.31;5034723;28;20120;-64
2021/08/20 04:46:17;;;;;;;6.15;3.25;;;;;;;17.35;68.82;100191.59;5034682;28;20136;-64
2021/08/20 04:48:44;;;;;;;12.10;3.30;;;;;;;17.41;68.48;100195.91;5035228;28;20444;-64
2021/08/20 04:51:11;;;;;;;10.48;3.83;;;;;;;17.39;68.65;100196.22;5034739;28;20140;-63
2021/08/20 04:53:39;;;;;;;8.93;3.75;;;;;;;17.36;69.05;100196.91;5034567;28;20599;-64
2021/08/20 04:56:06;;;;;;;11.23;4.00;;;;;;;17.19;69.52;100194.94;5034874;28;20072;-63
2021/08/20 04:58:35;;;;;;;14.23;4.55;;;;;;;17.01;69.74;100180.03;5034486;28;20092;-63
2021/08/20 05:01:03;;;;;;;9.75;3.90;;;;;;;17.12;69.43;100183.31;5040289;28;20121;-63
2021/08/20 05:03:31;;;;;;;8.38;4.10;;;;;;;17.13;69.77;100190.66;5034825;28;20195;-63
2021/08/20 05:05:58;;;;;;;10.27;3.97;;;;;;;17.06;69.60;100187.50;5034889;28;20509;-63
2021/08/20 05:08:25;;;;;;;7.18;3.65;;;;;;;17.19;69.63;100200.56;5034318;28;20527;-64
2021/08/20 05:10:52;;;;;;;11.93;4.28;;;;;;;17.20;69.78;100202.25;5034236;28;20085;-63
2021/08/20 05:13:19;;;;;;;9.02;3.92;;;;;;;17.27;69.15;100205.41;5034183;28;20129;-64
2021/08/20 05:15:46;;;;;;;8.23;3.92;;;;;;;17.32;69.43;100210.03;5035127;28;20279;-63
2021/08/20 05:18:12;;;;;;;10.75;3.90;;;;;;;17.27;69.56;100201.75;5053997;28;20091;-63
2021/08/20 05:20:39;;;;;;;6.95;3.83;;;;;;;17.38;69.32;100219.16;5054266;28;20119;-64
2021/08/20 05:23:06;;;;;;;9.75;3.80;;;;;;;17.33;69.48;100220.16;5053171;28;20072;-64
2021/08/20 05:25:35;;;;;;;10.57;3.72;;;;;;;17.30;69.79;100212.38;5052605;28;20153;-64
2021/08/20 05:28:03;;;;;;;17.58;4.75;;;;;;;17.34;69.61;100218.19;5053852;28;20132;-64
2021/08/20 05:30:30;;;;;;;11.23;3.60;;;;;;;17.42;69.46;100229.44;5034296;28;20076;-64
2021/08/20 05:32:57;;;;;;;12.40;3.70;;;;;;;17.44;68.98;100223.47;5034045;28;20073;-64
2021/08/20 05:35:24;;;;;;;12.13;5.10;;;;;;;17.49;69.02;100231.75;5035762;28;20135;-64
2021/08/20 05:37:53;;;;;;;12.88;4.32;;;;;;;17.54;69.39;100231.59;5054258;28;20049;-64
2021/08/20 05:40:20;;;;;;;9.40;3.42;;;;;;;17.53;69.33;100238.38;5043720;28;20148;-64
2021/08/20 05:42:47;;;;;;;9.43;3.72;;;;;;;17.55;69.44;100244.53;5033679;28;20289;-64
2021/08/20 05:45:14;;;;;;;13.45;3.60;;;;;;;17.44;69.04;100240.41;5033482;28;20091;-64
2021/08/20 05:47:41;;;;;;;8.75;3.25;;;;;;;17.43;69.41;100250.84;5033669;28;20140;-64
2021/08/20 05:50:08;;;;;;;9.45;4.05;;;;;;;17.34;69.41;100224.66;5033868;28;20535;-64
2021/08/20 05:52:37;;;;;;;11.77;4.43;;;;;;;17.37;69.59;100228.81;5033465;28;20473;-64
2021/08/20 05:55:06;;;;;;;9.13;3.95;;;;;;;17.31;70.30;100247.06;5042113;28;20132;-64
2021/08/20 05:57:33;;;;;;;9.13;3.10;;;;;;;17.23;70.42;100251.53;5035649;28;20079;-63
2021/08/20 06:00:00;;;;;;;12.73;4.78;;;;;;;17.13;70.08;100247.09;5052008;28;20080;-61
2021/08/20 06:02:27;;;;;;;13.68;5.07;;;;;;;17.19;70.82;100259.84;5037381;28;20081;-63
2021/08/20 06:04:54;;;;;;;12.93;4.18;;;;;;;17.14;70.54;100265.66;5033389;28;20371;-63
2021/08/20 06:07:21;;;;;;;9.75;4.43;;;;;;;17.16;70.31;100269.00;5033386;28;20161;-63
2021/08/20 06:09:47;;;;;;;11.95;5.22;;;;;;;17.05;70.62;100262.00;5033397;28;20504;-63
2021/08/20 06:12:14;;;;;;;14.68;5.72;;;;;;;17.10;70.53;100273.13;5033015;28;20054;-63
2021/08/20 06:14:41;;;;;;;12.25;4.70;;;;;;;17.15;70.33;100274.94;5032626;28;20442;-63
2021/08/20 06:17:08;;;;;;;12.70;5.25;;;;;;;17.24;70.56;100270.97;5033315;28;20125;-63
2021/08/20 06:19:35;;;;;;;13.82;5.82;;;;;;;17.20;70.46;100267.16;5033375;28;20144;-63
2021/08/20 06:22:02;;;;;;;11.88;4.60;;;;;;;17.21;70.23;100282.91;5032924;28;20079;-62
2021/08/20 06:24:28;;;;;;;11.88;4.63;;;;;;;17.26;70.13;100274.31;5032722;28;20072;-63
2021/08/20 06:26:55;;;;;;;10.13;4.15;;;;;;;17.34;70.51;100280.28;5048211;28;20496;-63
2021/08/20 06:29:22;;;;;;;12.63;5.03;;;;;;;17.30;70.08;100280.13;5048137;28;20469;-63
2021/08/20 06:31:49;;;;;;;8.20;4.00;;;;;;;17.37;70.41;100285.25;5033273;28;20132;-63
2021/08/20 06:34:16;;;;;;;13.25;5.15;;;;;;;17.31;70.41;100276.13;5032654;28;20199;-63
2021/08/20 06:36:44;;;;;;;8.70;4.53;;;;;;;17.40;70.28;100293.03;5032669;28;20128;-63
2021/08/20 06:39:11;;;;;;;13.30;5.07;;;;;;;17.21;70.50;100277.28;5032535;28;20095;-63
2021/08/20 06:41:39;;;;;;;11.10;4.68;;;;;;;17.19;70.35;100278.75;5032452;28;20046;-63
2021/08/20 06:44:06;;;;;;;10.35;4.93;;;;;;;17.31;70.10;100287.41;5032936;28;20459;-62
2021/08/20 06:46:32;;;;;;;10.57;4.45;;;;;;;17.46;69.91;100297.34;5032438;28;20084;-62
2021/08/20 06:49:00;;;;;;;11.52;4.38;;;;;;;17.41;70.05;100294.72;5032939;28;20055;-62
2021/08/20 06:51:26;;;;;;;11.88;4.47;;;;;;;17.40;70.14;100296.72;5032041;28;20136;-63
2021/08/20 06:53:53;;;;;;;15.15;4.32;;;;;;;17.42;69.96;100304.84;5031025;28;20485;-62
2021/08/20 06:56:20;;;;;;;14.63;4.43;;;;;;;17.21;70.27;100260.34;5032231;28;20508;-63
2021/08/20 06:58:47;;;;;;;9.80;4.53;;;;;;;17.39;70.18;100288.56;5045557;28;20147;-63
2021/08/20 07:01:16;;;;;;;12.15;5.55;;;;;;;17.47;69.77;100294.22;5050204;28;20564;-63
2021/08/20 07:03:43;;;;;;;10.45;4.30;;;;;;;17.63;69.51;100304.97;5032620;28;20072;-63
2021/08/20 07:06:21;;;;;;;12.23;5.03;;;;;;;17.62;69.68;100284.38;5032386;28;20045;-63
2021/08/20 07:08:49;;;;;;;8.85;4.15;;;;;;;17.66;69.61;100279.72;5032111;28;20405;-63
2021/08/20 07:11:17;;;;;;;9.32;4.30;;;;;;;17.71;69.80;100290.84;5032084;28;20053;-63
2021/08/20 07:13:44;;;;;;;9.10;4.15;;;;;;;17.79;69.29;100302.50;5041544;28;20084;-63
2021/08/20 07:16:13;;;;;;;9.30;3.60;;;;;;;17.57;69.90;100295.84;5051986;28;20045;-63
2021/08/20 07:18:40;;;;;;;11.88;5.50;;;;;;;17.40;70.55;100310.81;5052141;28;20045;-63
2021/08/20 07:21:07;;;;;;;19.25;5.05;;;;;;;17.27;70.62;100321.09;5052027;28;20497;-63
2021/08/20 07:23:34;;;;;;;9.30;4.13;;;;;;;17.09;71.06;100290.38;5035216;28;20137;-64
2021/08/20 07:26:03;;;;;;;10.18;3.88;;;;;;;17.04;71.86;100316.75;5032413;28;20046;-63
2021/08/20 07:28:30;;;;;;;14.35;4.78;;;;;;;16.89;72.12;100311.59;5052197;28;20132;-63
2021/08/20 07:30:57;;;;;;;14.95;5.15;;;;;;;16.90;72.21;100308.44;5052210;28;20052;-63
2021/08/20 07:33:24;;;;;;;11.88;4.88;;;;;;;16.95;72.28;100308.28;5048672;28;20059;-63
2021/08/20 07:35:51;;;;;;;10.98;4.68;;;;;;;17.01;72.27;100329.53;5031993;28;20077;-64
2021/08/20 07:38:18;;;;;;;13.52;5.20;;;;;;;17.22;71.52;100323.25;5030702;28;20084;-64
2021/08/20 07:40:45;;;;;;;12.98;4.15;;;;;;;17.24;71.58;100310.47;5032644;28;20115;-63
2021/08/20 07:43:12;;;;;;;13.05;5.32;;;;;;;17.27;71.69;100309.81;5031826;28;20041;-64
2021/08/20 07:45:39;;;;;;;11.23;5.15;;;;;;;17.49;70.98;100325.75;5032074;28;20045;-64
2021/08/20 07:48:06;;;;;;;11.93;5.28;;;;;;;17.74;70.91;100318.44;5031889;28;20136;-63
2021/08/20 07:50:33;;;;;;;15.63;6.40;;;;;;;17.76;70.38;100298.34;5031825;28;20486;-64
2021/08/20 07:53:00;;;;;;;13.35;5.70;;;;;;;17.94;70.11;100321.72;5031479;28;20478;-65
2021/08/20 07:55:27;;;;;;;11.35;4.72;;;;;;;18.18;69.76;100338.13;5030814;28;20046;-64
2021/08/20 07:57:55;;;;;;;12.60;4.90;;;;;;;18.28;69.62;100329.28;5043222;28;20060;-63
2021/08/20 08:00:30;;;;;;;14.30;7.00;;;;;;;18.33;69.47;100319.81;5035440;28;20080;-63
2021/08/20 08:02:57;;;;;;;11.63;4.78;;;;;;;18.38;69.37;100333.75;5031626;28;20479;-63
2021/08/20 08:05:27;;;;;;;13.73;5.40;;;;;;;18.31;69.45;100324.94;5031526;28;20056;-63
2021/08/20 08:07:56;;;;;;;14.02;5.88;;;;;;;18.34;69.19;100327.09;5031686;28;20072;-63
2021/08/20 08:10:23;;;;;;;10.02;5.63;;;;;;;18.46;68.81;100335.69;5031691;28;20076;-64
2021/08/20 08:12:51;;;;;;;13.82;5.80;;;;;;;18.53;68.62;100338.84;5030813;28;20045;-63
2021/08/20 08:15:19;;;;;;;10.88;5.72;;;;;;;18.42;68.82;100343.19;5031457;28;20081;-63
2021/08/20 08:17:45;;;;;;;12.77;6.00;;;;;;;18.22;68.83;100331.47;5034343;28;20137;-64
2021/08/20 08:20:15;;;;;;;13.15;5.57;;;;;;;18.43;69.12;100334.38;5034815;28;20136;-63
2021/08/20 08:22:42;;;;;;;16.30;6.80;;;;;;;18.55;68.59;100344.97;5035417;28;20386;-64
2021/08/20 08:25:09;;;;;;;13.02;5.88;;;;;;;18.66;68.26;100349.06;5035057;28;20317;-64
2021/08/20 08:27:52;;;;;;;17.58;6.03;;;;;;;18.70;68.37;100343.59;5034464;28;20045;-64
2021/08/20 08:30:19;;;;;;;14.05;6.57;;;;;;;18.68;67.97;100335.44;5040990;28;20102;-64
2021/08/20 08:32:46;;;;;;;13.23;6.28;;;;;;;18.88;67.98;100362.16;5054833;28;20567;-64
2021/08/20 08:35:13;;;;;;;12.77;6.20;;;;;;;18.84;67.95;100349.03;5047120;28;20041;-64
2021/08/20 08:37:40;;;;;;;15.45;6.65;;;;;;;18.92;67.76;100365.13;5034982;28;20081;-64
2021/08/20 08:40:07;;;;;;;15.50;6.38;;;;;;;18.76;67.62;100355.56;5034852;28;20111;-64
2021/08/20 08:42:36;;;;;;;11.05;5.55;;;;;;;18.67;67.72;100345.09;5041508;28;20072;-64
2021/08/20 08:45:05;;;;;;;15.50;6.50;;;;;;;18.88;67.77;100361.34;5054832;28;20576;-64
2021/08/20 08:47:34;;;;;;;13.80;6.68;;;;;;;18.88;67.52;100358.50;5041644;28;20128;-63
2021/08/20 08:50:07;;;;;;;14.45;5.90;;;;;;;18.98;67.71;100360.13;5034659;28;20045;-63
2021/08/20 08:52:34;;;;;;;12.77;6.88;;;;;;;19.12;67.32;100374.84;5034985;28;20524;-63
2021/08/20 08:55:06;;;;;;;13.05;7.50;;;;;;;19.12;67.08;100358.69;5034720;28;20048;-63
2021/08/20 08:57:33;;;;;;;13.15;7.75;;;;;;;19.24;66.97;100391.91;5034569;28;20560;-63
2021/08/20 09:00:00;;;;;;;16.13;7.88;;;;;;;19.35;67.10;100383.81;5034363;28;20452;-64
2021/08/20 09:02:30;;;;;;;18.52;7.05;;;;;;;19.31;66.90;100369.53;5034383;28;20057;-64
2021/08/20 09:05:03;;;;;;;15.77;6.60;;;;;;;19.40;66.95;100370.31;5035248;28;20045;-64
2021/08/20 09:07:30;;;;;;;15.07;6.80;;;;;;;19.49;66.62;100380.75;5034738;28;20053;-64
2021/08/20 09:10:19;;;;;;;13.35;7.20;;;;;;;19.50;66.52;100383.22;5034547;28;20161;-64
2021/08/20 09:12:52;;;;;;;16.15;7.20;;;;;;;19.51;66.22;100384.88;5034043;28;20080;-64
2021/08/20 09:15:30;;;;;;;15.70;7.82;;;;;;;19.52;66.47;100375.22;5034042;28;20046;-64
2021/08/20 09:18:03;;;;;;;15.52;7.53;;;;;;;19.58;66.29;100370.16;5034204;28;20049;-64
2021/08/20 09:20:32;;;;;;;16.58;6.28;;;;;;;19.69;66.20;100387.59;5054348;28;20132;-64
2021/08/20 09:23:15;;;;;;;15.27;7.40;;;;;;;19.71;66.20;100388.09;5035018;28;20132;-64
2021/08/20 09:25:44;;;;;;;18.48;8.15;;;;;;;19.80;66.22;100395.34;5034107;28;20406;-64
2021/08/20 09:28:26;;;;;;;17.73;8.32;;;;;;;19.84;65.83;100409.66;5033642;28;20085;-64
2021/08/20 09:30:59;;;;;;;23.30;8.60;;;;;;;19.82;66.17;100400.66;5033981;28;20128;-64
2021/08/20 09:33:50;;;;;;;22.92;8.43;;;;;;;19.81;66.00;100399.84;5033794;28;20125;-64
2021/08/20 09:36:22;;;;;;;16.08;6.85;;;;;;;19.81;65.67;100399.84;5031300;28;20501;-63
2021/08/20 09:38:52;;;;;;;15.40;7.68;;;;;;;19.71;65.77;100393.75;5045766;28;20076;-63
2021/08/20 09:41:29;;;;;;;23.50;9.00;;;;;;;19.75;65.73;100406.06;5052674;28;20091;-64
2021/08/20 09:44:01;;;;;;;17.27;8.18;;;;;;;19.76;65.42;100419.03;5035563;28;20132;-65
2021/08/20 09:46:43;;;;;;;21.95;8.35;;;;;;;19.80;65.56;100414.34;5033713;28;20574;-64
2021/08/20 09:49:12;;;;;;;18.73;8.38;;;;;;;19.84;65.59;100423.81;5033411;28;20089;-64
2021/08/20 09:51:47;;;;;;;16.50;8.23;;;;;;;19.74;65.56;100415.75;5048546;28;20044;-64
2021/08/20 09:54:22;;;;;;;20.30;9.10;;;;;;;19.89;65.71;100438.59;5053391;28;20503;-64
2021/08/20 09:56:59;;;;;;;23.80;8.90;;;;;;;19.93;65.69;100429.41;5051171;28;20056;-65
2021/08/20 09:59:30;;;;;;;21.40;9.18;;;;;;;19.97;65.55;100442.53;5053249;28;20477;-64
2021/08/20 10:02:00;;;;;;;23.38;10.25;;;;;;;20.04;65.47;100442.81;5053171;28;20049;-64
2021/08/20 10:04:30;;;;;;;18.27;9.90;;;;;;;20.15;65.42;100426.19;5051958;28;20403;-64
2021/08/20 10:06:59;;;;;;;18.88;8.80;;;;;;;20.52;64.70;100447.03;5053419;28;20084;-63
2021/08/20 10:09:29;;;;;;;20.97;8.33;;;;;;;20.80;64.31;100446.38;5053172;28;20052;-64
2021/08/20 10:11:58;;;;;;;16.52;8.15;;;;;;;20.94;63.67;100446.88;5051171;28;20129;-64
2021/08/20 10:14:27;;;;;;;15.77;7.87;;;;;;;20.98;63.52;100442.13;5039190;28;20133;-64
2021/08/20 10:16:54;;;;;;;17.93;8.57;;;;;;;21.10;63.38;100434.84;5033133;28;20449;-64
2021/08/20 10:19:21;;;;;;;18.63;7.70;;;;;;;21.21;63.13;100436.00;5033208;28;20045;-64
2021/08/20 10:21:48;;;;;;;21.80;8.25;;;;;;;21.38;62.56;100443.47;5032934;28;20053;-64
2021/08/20 10:24:15;;;;;;;18.58;7.22;;;;;;;21.49;61.88;100456.84;5032826;28;20087;-63
2021/08/20 10:26:54;;;;;;;17.90;8.18;;;;;;;21.45;62.05;100453.06;5032652;28;20089;-64
2021/08/20 10:29:29;;;;;;;16.45;7.75;;;;;;;21.45;62.11;100455.91;5033270;28;20056;-64
2021/08/20 10:31:58;;;;;;;16.88;7.90;;;;;;;21.59;61.79;100454.69;5032977;28;20129;-63
2021/08/20 10:34:30;;;;;;;15.40;7.03;;;;;;;21.61;61.80;100458.03;5032506;28;20796;-63
2021/08/20 10:37:08;;;;;;;15.38;7.80;;;;;;;21.73;61.35;100466.50;5032378;28;20089;-64
2021/08/20 10:39:36;;;;;;;12.38;6.60;;;;;;;22.17;60.30;100475.19;5032263;28;20053;-64
2021/08/20 10:42:11;;;;;;;16.17;7.70;;;;;;;22.46;59.31;100476.84;5032910;28;20563;-64
2021/08/20 10:44:47;;;;;;;17.88;7.35;;;;;;;22.59;59.41;100474.75;5032720;28;20133;-63
2021/08/20 10:47:25;;;;;;;13.80;7.22;;;;;;;22.54;59.51;100460.81;5033098;28;20051;-64
2021/08/20 10:50:11;;;;;;;19.98;8.43;;;;;;;22.74;59.13;100464.63;5032362;28;20092;-63
2021/08/20 10:52:49;;;;;;;14.38;7.13;;;;;;;23.14;57.94;100473.81;5032460;28;20049;-64
2021/08/20 10:55:34;;;;;;;49.95;12.27;;;;;;;23.19;57.57;100481.28;5038263;28;20099;-65
2021/08/20 10:58:07;;;;;;;20.35;9.48;;;;;;;23.84;56.60;100449.47;5052202;28;20096;-63
2021/08/20 11:00:37;;;;;;;15.20;8.02;;;;;;;24.21;55.98;100467.00;5037923;28;20049;-63
2021/08/20 11:03:08;;;;;;;19.40;7.60;;;;;;;24.06;55.83;100450.75;5035124;28;20056;-63
2021/08/20 11:05:44;;;;;;;17.75;9.45;;;;;;;24.33;55.55;100468.88;5035558;28;20045;-63
2021/08/20 11:08:43;;;;;;;11.73;6.90;;;;;;;25.38;54.45;100456.16;5032081;28;20132;-63
2021/08/20 11:11:40;;;;;;;11.13;6.63;;;;;;;25.47;53.91;100461.59;5020304;28;20124;-64
2021/08/20 11:14:32;;;;;;;10.05;6.65;;;;;;;25.74;53.06;100448.97;5031897;28;20140;-63
2021/08/20 11:16:59;;;;;;;15.70;7.75;;;;;;;26.34;51.94;100459.59;5032397;28;20473;-64
2021/08/20 11:19:46;;;;;;;14.88;7.30;;;;;;;26.85;51.34;100455.28;5032198;28;20077;-64
2021/08/20 11:22:24;;;;;;;12.15;7.20;;;;;;;26.73;50.82;100424.03;5031906;28;20137;-64
2021/08/20 11:25:11;;;;;;;14.65;6.43;;;;;;;27.55;49.96;100448.53;5041422;28;20485;-64
2021/08/20 11:27:40;;;;;;;10.43;5.80;;;;;;;28.40;47.98;100464.63;5052019;28;20136;-63